ポートルイス の空港の天気 - METARとTAF

サー・シウサガル・ラングラーム国際空港 ( FIMP / MRU ) - モーリシャス ポートルイス
飛行場実況気象(Metar)
観測時間10/22 15:00 MUT (10/22 11:00 UTC)
風向・風速南東 5m/s
視程10km以上
天気現象
全天の4割程度の雲 雲底高度 580m
気温27℃
湿度62%
気圧1018hPa
METARFIMP 221100Z 13010KT 9999 SCT019 27/19 Q1018
過去の天気等 Google飛行場航空写真 Wunderground天気予報

過去48時間のMETAR

飛行場予報(TAF)
発表時間: 10/22 09:05 MUT (10/22 05:05 UTC)
予報対象時間: 22日10時 MUT ~ 23日16時 MUT
風向・風速東南東 5m/s 瞬間風速 13m/s
視程10km以上
全天の4割程度の雲 雲底高度 490m
23日0時 MUT ~ 23日7時 MUT に 確率 30% で一時的に
視程7000m
天気現象弱いしゅう雨
少しの雲 雲底高度 300m
全天の4割程度の雲 雲底高度 460m
全天の8割程度の雲 雲底高度 1520m
TAF FIMP 220505Z 2206/2312 11010G25KT 9999 SCT016
PROB30 TEMPO 2220/2303 7000 -SHRA FEW010 SCT015 BKN050